sensor_id;sensor_type;location;lat;lon;timestamp;pressure;altitude;pressure_sealevel;temperature;humidity
72262;BME280;60173;52.112;8.648;2022-10-22T00:00:53;100054.16;;;12.53;100.00
72262;BME280;60173;52.112;8.648;2022-10-22T00:03:19;100055.94;;;11.76;100.00
72262;BME280;60173;52.112;8.648;2022-10-22T00:05:46;100050.97;;;11.69;100.00
72262;BME280;60173;52.112;8.648;2022-10-22T00:08:13;100049.66;;;11.58;100.00
72262;BME280;60173;52.112;8.648;2022-10-22T00:10:40;100050.28;;;11.55;100.00
72262;BME280;60173;52.112;8.648;2022-10-22T00:13:06;100050.53;;;11.45;100.00
72262;BME280;60173;52.112;8.648;2022-10-22T00:15:33;100056.59;;;11.42;100.00
72262;BME280;60173;52.112;8.648;2022-10-22T00:17:59;100064.28;;;11.40;100.00
72262;BME280;60173;52.112;8.648;2022-10-22T00:20:25;100065.56;;;11.42;100.00
72262;BME280;60173;52.112;8.648;2022-10-22T00:22:52;100072.63;;;11.43;100.00
72262;BME280;60173;52.112;8.648;2022-10-22T00:25:18;100065.75;;;11.46;100.00
72262;BME280;60173;52.112;8.648;2022-10-22T00:27:44;100078.53;;;11.45;100.00
72262;BME280;60173;52.112;8.648;2022-10-22T00:30:11;100066.22;;;11.48;100.00
72262;BME280;60173;52.112;8.648;2022-10-22T00:32:38;100065.25;;;11.44;100.00
72262;BME280;60173;52.112;8.648;2022-10-22T00:35:06;100072.75;;;11.38;100.00
72262;BME280;60173;52.112;8.648;2022-10-22T00:37:32;100074.69;;;11.38;100.00
72262;BME280;60173;52.112;8.648;2022-10-22T00:39:59;100083.94;;;11.37;100.00
72262;BME280;60173;52.112;8.648;2022-10-22T00:42:26;100088.91;;;11.35;100.00
72262;BME280;60173;52.112;8.648;2022-10-22T00:47:57;100093.97;;;11.27;100.00
72262;BME280;60173;52.112;8.648;2022-10-22T00:50:40;100099.28;;;11.32;100.00
72262;BME280;60173;52.112;8.648;2022-10-22T00:53:13;100102.16;;;11.36;100.00
72262;BME280;60173;52.112;8.648;2022-10-22T00:55:42;100096.44;;;11.38;100.00
72262;BME280;60173;52.112;8.648;2022-10-22T00:58:11;100092.47;;;11.44;100.00
72262;BME280;60173;52.112;8.648;2022-10-22T01:00:38;100098.88;;;11.48;100.00
72262;BME280;60173;52.112;8.648;2022-10-22T01:03:05;100098.06;;;11.47;100.00
72262;BME280;60173;52.112;8.648;2022-10-22T01:05:39;100098.22;;;11.51;100.00
72262;BME280;60173;52.112;8.648;2022-10-22T01:08:13;100102.09;;;11.50;100.00
72262;BME280;60173;52.112;8.648;2022-10-22T01:13:37;100086.25;;;11.52;100.00
72262;BME280;60173;52.112;8.648;2022-10-22T01:16:20;100093.78;;;11.55;100.00
72262;BME280;60173;52.112;8.648;2022-10-22T01:24:41;100087.50;;;11.46;100.00
72262;BME280;60173;52.112;8.648;2022-10-22T01:30:01;100085.44;;;11.43;100.00
72262;BME280;60173;52.112;8.648;2022-10-22T01:32:30;100082.22;;;11.41;100.00
72262;BME280;60173;52.112;8.648;2022-10-22T01:35:05;100086.47;;;11.33;100.00
72262;BME280;60173;52.112;8.648;2022-10-22T01:37:36;100090.50;;;11.36;100.00
72262;BME280;60173;52.112;8.648;2022-10-22T01:40:04;100087.94;;;11.39;100.00
72262;BME280;60173;52.112;8.648;2022-10-22T01:42:32;100086.84;;;11.40;100.00
72262;BME280;60173;52.112;8.648;2022-10-22T01:44:58;100092.47;;;11.44;100.00
72262;BME280;60173;52.112;8.648;2022-10-22T01:47:44;100091.97;;;11.42;100.00
72262;BME280;60173;52.112;8.648;2022-10-22T01:55:46;100083.69;;;11.47;100.00
72262;BME280;60173;52.112;8.648;2022-10-22T02:03:47;100079.78;;;11.39;100.00
72262;BME280;60173;52.112;8.648;2022-10-22T02:06:18;100075.16;;;11.40;100.00
72262;BME280;60173;52.112;8.648;2022-10-22T02:08:46;100086.66;;;11.37;100.00
72262;BME280;60173;52.112;8.648;2022-10-22T02:11:14;100087.03;;;11.44;100.00
72262;BME280;60173;52.112;8.648;2022-10-22T02:13:46;100078.84;;;11.44;100.00
72262;BME280;60173;52.112;8.648;2022-10-22T02:16:30;100082.22;;;11.41;100.00
72262;BME280;60173;52.112;8.648;2022-10-22T02:18:58;100074.22;;;11.44;100.00
72262;BME280;60173;52.112;8.648;2022-10-22T02:21:28;100067.66;;;11.45;100.00
72262;BME280;60173;52.112;8.648;2022-10-22T02:23:55;100068.75;;;11.36;100.00
72262;BME280;60173;52.112;8.648;2022-10-22T02:26:27;100055.28;;;11.30;100.00
72262;BME280;60173;52.112;8.648;2022-10-22T02:29:11;100061.16;;;11.24;100.00
72262;BME280;60173;52.112;8.648;2022-10-22T02:31:40;100043.72;;;11.25;100.00
72262;BME280;60173;52.112;8.648;2022-10-22T02:34:13;100053.59;;;11.12;100.00
72262;BME280;60173;52.112;8.648;2022-10-22T02:36:42;100058.41;;;11.15;100.00
72262;BME280;60173;52.112;8.648;2022-10-22T02:39:16;100056.81;;;11.14;100.00
72262;BME280;60173;52.112;8.648;2022-10-22T02:41:44;100061.91;;;11.16;100.00
72262;BME280;60173;52.112;8.648;2022-10-22T02:44:10;100062.25;;;11.14;100.00
72262;BME280;60173;52.112;8.648;2022-10-22T02:46:38;100055.56;;;11.20;100.00
72262;BME280;60173;52.112;8.648;2022-10-22T02:49:05;100054.97;;;11.32;100.00
72262;BME280;60173;52.112;8.648;2022-10-22T02:51:31;100066.47;;;11.29;100.00
72262;BME280;60173;52.112;8.648;2022-10-22T02:53:58;100051.09;;;11.24;100.00
72262;BME280;60173;52.112;8.648;2022-10-22T02:56:24;100068.81;;;11.22;100.00
72262;BME280;60173;52.112;8.648;2022-10-22T02:58:50;100063.66;;;11.12;100.00
72262;BME280;60173;52.112;8.648;2022-10-22T03:01:17;100058.19;;;11.03;100.00
72262;BME280;60173;52.112;8.648;2022-10-22T03:03:43;100070.47;;;11.00;100.00
72262;BME280;60173;52.112;8.648;2022-10-22T03:06:09;100074.25;;;10.91;100.00
72262;BME280;60173;52.112;8.648;2022-10-22T03:08:36;100071.16;;;10.83;100.00
72262;BME280;60173;52.112;8.648;2022-10-22T03:11:02;100082.13;;;10.78;100.00
72262;BME280;60173;52.112;8.648;2022-10-22T03:13:29;100077.81;;;10.77;100.00
72262;BME280;60173;52.112;8.648;2022-10-22T03:15:55;100080.81;;;10.76;100.00
72262;BME280;60173;52.112;8.648;2022-10-22T03:18:21;100085.78;;;10.74;100.00
72262;BME280;60173;52.112;8.648;2022-10-22T03:20:48;100088.63;;;10.69;100.00
72262;BME280;60173;52.112;8.648;2022-10-22T03:23:17;100079.78;;;10.63;100.00
72262;BME280;60173;52.112;8.648;2022-10-22T03:25:45;100090.03;;;10.66;100.00
72262;BME280;60173;52.112;8.648;2022-10-22T03:28:14;100101.72;;;10.53;100.00
72262;BME280;60173;52.112;8.648;2022-10-22T03:30:42;100096.50;;;10.56;100.00
72262;BME280;60173;52.112;8.648;2022-10-22T03:33:08;100095.50;;;10.52;100.00
72262;BME280;60173;52.112;8.648;2022-10-22T03:35:39;100097.53;;;10.47;100.00
72262;BME280;60173;52.112;8.648;2022-10-22T03:38:07;100096.53;;;10.43;100.00
72262;BME280;60173;52.112;8.648;2022-10-22T03:40:34;100105.81;;;10.42;100.00
72262;BME280;60173;52.112;8.648;2022-10-22T03:43:00;100119.06;;;10.43;100.00
72262;BME280;60173;52.112;8.648;2022-10-22T03:45:26;100114.84;;;10.37;100.00
72262;BME280;60173;52.112;8.648;2022-10-22T03:47:53;100109.00;;;10.44;100.00
72262;BME280;60173;52.112;8.648;2022-10-22T03:50:19;100108.81;;;10.40;100.00
72262;BME280;60173;52.112;8.648;2022-10-22T03:52:46;100111.34;;;10.36;100.00
72262;BME280;60173;52.112;8.648;2022-10-22T03:55:12;100118.69;;;10.36;100.00
72262;BME280;60173;52.112;8.648;2022-10-22T03:57:38;100122.31;;;10.31;100.00
72262;BME280;60173;52.112;8.648;2022-10-22T04:00:06;100116.25;;;10.21;100.00
72262;BME280;60173;52.112;8.648;2022-10-22T04:02:32;100110.84;;;10.34;100.00
72262;BME280;60173;52.112;8.648;2022-10-22T04:04:59;100121.59;;;10.39;100.00
72262;BME280;60173;52.112;8.648;2022-10-22T04:07:25;100123.78;;;10.37;100.00
72262;BME280;60173;52.112;8.648;2022-10-22T04:09:51;100111.59;;;10.49;100.00
72262;BME280;60173;52.112;8.648;2022-10-22T04:12:18;100120.38;;;10.32;100.00
72262;BME280;60173;52.112;8.648;2022-10-22T04:14:44;100124.91;;;10.36;100.00
72262;BME280;60173;52.112;8.648;2022-10-22T04:17:10;100132.34;;;10.31;100.00
72262;BME280;60173;52.112;8.648;2022-10-22T04:19:37;100136.38;;;10.33;100.00
72262;BME280;60173;52.112;8.648;2022-10-22T04:22:03;100137.97;;;10.34;100.00
72262;BME280;60173;52.112;8.648;2022-10-22T04:24:30;100133.66;;;10.33;100.00
72262;BME280;60173;52.112;8.648;2022-10-22T04:26:57;100137.38;;;10.37;100.00
72262;BME280;60173;52.112;8.648;2022-10-22T04:29:24;100136.16;;;10.44;100.00
72262;BME280;60173;52.112;8.648;2022-10-22T04:31:50;100131.50;;;10.44;100.00
72262;BME280;60173;52.112;8.648;2022-10-22T04:34:17;100138.06;;;10.43;100.00
72262;BME280;60173;52.112;8.648;2022-10-22T04:36:43;100135.16;;;10.39;100.00
72262;BME280;60173;52.112;8.648;2022-10-22T04:39:09;100129.72;;;10.39;100.00
72262;BME280;60173;52.112;8.648;2022-10-22T04:41:37;100125.09;;;10.40;100.00
72262;BME280;60173;52.112;8.648;2022-10-22T04:44:04;100126.00;;;10.35;100.00
72262;BME280;60173;52.112;8.648;2022-10-22T04:46:33;100134.97;;;10.36;100.00
72262;BME280;60173;52.112;8.648;2022-10-22T04:49:00;100128.53;;;10.32;100.00
72262;BME280;60173;52.112;8.648;2022-10-22T04:51:27;100128.34;;;10.28;100.00
72262;BME280;60173;52.112;8.648;2022-10-22T04:53:53;100126.75;;;10.27;100.00
72262;BME280;60173;52.112;8.648;2022-10-22T04:56:25;100125.00;;;10.31;100.00
72262;BME280;60173;52.112;8.648;2022-10-22T04:59:00;100131.94;;;10.37;100.00
72262;BME280;60173;52.112;8.648;2022-10-22T05:01:30;100130.53;;;10.40;100.00
72262;BME280;60173;52.112;8.648;2022-10-22T05:03:59;100132.25;;;10.36;100.00
72262;BME280;60173;52.112;8.648;2022-10-22T05:06:27;100127.00;;;10.39;100.00
72262;BME280;60173;52.112;8.648;2022-10-22T05:08:59;100136.06;;;10.35;100.00
72262;BME280;60173;52.112;8.648;2022-10-22T05:11:31;100135.69;;;10.28;100.00
72262;BME280;60173;52.112;8.648;2022-10-22T05:13:59;100138.59;;;10.31;100.00
72262;BME280;60173;52.112;8.648;2022-10-22T05:16:28;100139.28;;;10.37;100.00
72262;BME280;60173;52.112;8.648;2022-10-22T05:18:54;100136.38;;;10.47;100.00
72262;BME280;60173;52.112;8.648;2022-10-22T05:21:22;100129.50;;;10.50;100.00
72262;BME280;60173;52.112;8.648;2022-10-22T05:23:49;100130.41;;;10.59;100.00
72262;BME280;60173;52.112;8.648;2022-10-22T05:26:20;100128.31;;;10.56;100.00
72262;BME280;60173;52.112;8.648;2022-10-22T05:28:48;100125.06;;;10.54;100.00
72262;BME280;60173;52.112;8.648;2022-10-22T05:31:15;100135.31;;;10.57;100.00
72262;BME280;60173;52.112;8.648;2022-10-22T05:33:42;100149.34;;;10.73;100.00
72262;BME280;60173;52.112;8.648;2022-10-22T05:36:14;100144.34;;;10.66;100.00
72262;BME280;60173;52.112;8.648;2022-10-22T05:38:41;100145.75;;;10.63;100.00
72262;BME280;60173;52.112;8.648;2022-10-22T05:41:10;100147.78;;;10.58;100.00
72262;BME280;60173;52.112;8.648;2022-10-22T05:43:37;100150.31;;;10.54;100.00
72262;BME280;60173;52.112;8.648;2022-10-22T05:46:14;100148.63;;;10.45;100.00
72262;BME280;60173;52.112;8.648;2022-10-22T05:48:49;100155.94;;;10.44;100.00
72262;BME280;60173;52.112;8.648;2022-10-22T05:51:15;100161.59;;;10.48;100.00
72262;BME280;60173;52.112;8.648;2022-10-22T05:53:42;100171.34;;;10.49;100.00
72262;BME280;60173;52.112;8.648;2022-10-22T05:56:14;100163.91;;;10.40;100.00
72262;BME280;60173;52.112;8.648;2022-10-22T05:58:41;100167.94;;;10.43;100.00
72262;BME280;60173;52.112;8.648;2022-10-22T06:01:16;100170.72;;;10.52;100.00
72262;BME280;60173;52.112;8.648;2022-10-22T06:03:43;100175.78;;;10.45;100.00
72262;BME280;60173;52.112;8.648;2022-10-22T06:08:47;100174.75;;;10.54;100.00
72262;BME280;60173;52.112;8.648;2022-10-22T06:11:15;100197.69;;;10.62;100.00
72262;BME280;60173;52.112;8.648;2022-10-22T06:13:41;100190.63;;;10.61;100.00
72262;BME280;60173;52.112;8.648;2022-10-22T06:16:07;100195.06;;;10.57;100.00
72262;BME280;60173;52.112;8.648;2022-10-22T06:18:34;100211.03;;;10.58;100.00
72262;BME280;60173;52.112;8.648;2022-10-22T06:21:11;100207.16;;;10.51;100.00
72262;BME280;60173;52.112;8.648;2022-10-22T06:23:38;100216.38;;;10.50;100.00
72262;BME280;60173;52.112;8.648;2022-10-22T06:26:06;100203.91;;;10.49;100.00
72262;BME280;60173;52.112;8.648;2022-10-22T06:28:32;100207.34;;;10.40;100.00
72262;BME280;60173;52.112;8.648;2022-10-22T06:31:00;100218.81;;;10.37;100.00
72262;BME280;60173;52.112;8.648;2022-10-22T06:33:28;100217.59;;;10.44;100.00
72262;BME280;60173;52.112;8.648;2022-10-22T06:35:54;100220.41;;;10.38;100.00
72262;BME280;60173;52.112;8.648;2022-10-22T06:38:21;100221.44;;;10.43;100.00
72262;BME280;60173;52.112;8.648;2022-10-22T06:40:47;100226.25;;;10.46;100.00
72262;BME280;60173;52.112;8.648;2022-10-22T06:43:13;100232.47;;;10.46;100.00
72262;BME280;60173;52.112;8.648;2022-10-22T06:45:40;100237.31;;;10.63;100.00
72262;BME280;60173;52.112;8.648;2022-10-22T06:48:06;100238.38;;;10.76;100.00
72262;BME280;60173;52.112;8.648;2022-10-22T06:50:33;100241.31;;;10.66;100.00
72262;BME280;60173;52.112;8.648;2022-10-22T06:53:00;100253.78;;;10.80;100.00
72262;BME280;60173;52.112;8.648;2022-10-22T06:55:26;100257.47;;;10.84;100.00
72262;BME280;60173;52.112;8.648;2022-10-22T06:57:54;100252.97;;;10.94;100.00
72262;BME280;60173;52.112;8.648;2022-10-22T07:00:20;100258.41;;;10.94;100.00
72262;BME280;60173;52.112;8.648;2022-10-22T07:02:51;100260.56;;;11.05;100.00
72262;BME280;60173;52.112;8.648;2022-10-22T07:05:20;100258.03;;;11.09;100.00
72262;BME280;60173;52.112;8.648;2022-10-22T07:07:46;100263.84;;;11.16;100.00
72262;BME280;60173;52.112;8.648;2022-10-22T07:10:13;100262.50;;;11.27;100.00
72262;BME280;60173;52.112;8.648;2022-10-22T07:12:39;100262.91;;;11.35;100.00
72262;BME280;60173;52.112;8.648;2022-10-22T07:15:06;100271.78;;;11.26;100.00
72262;BME280;60173;52.112;8.648;2022-10-22T07:17:33;100262.91;;;11.35;100.00
72262;BME280;60173;52.112;8.648;2022-10-22T07:20:00;100263.69;;;11.35;100.00
72262;BME280;60173;52.112;8.648;2022-10-22T07:22:27;100261.84;;;11.44;100.00
72262;BME280;60173;52.112;8.648;2022-10-22T07:24:53;100262.41;;;11.55;100.00
72262;BME280;60173;52.112;8.648;2022-10-22T07:27:19;100274.41;;;11.76;100.00
72262;BME280;60173;52.112;8.648;2022-10-22T07:29:46;100281.22;;;11.88;100.00
72262;BME280;60173;52.112;8.648;2022-10-22T07:32:12;100275.47;;;11.89;99.44
72262;BME280;60173;52.112;8.648;2022-10-22T07:34:39;100286.25;;;12.03;99.57
72262;BME280;60173;52.112;8.648;2022-10-22T07:37:09;100278.97;;;12.12;99.30
72262;BME280;60173;52.112;8.648;2022-10-22T07:39:35;100292.31;;;12.23;98.90
72262;BME280;60173;52.112;8.648;2022-10-22T07:42:01;100291.25;;;12.41;98.44
72262;BME280;60173;52.112;8.648;2022-10-22T07:44:28;100283.59;;;12.52;97.46
72262;BME280;60173;52.112;8.648;2022-10-22T07:46:54;100294.41;;;12.65;97.08
72262;BME280;60173;52.112;8.648;2022-10-22T07:49:20;100286.09;;;12.71;96.37
72262;BME280;60173;52.112;8.648;2022-10-22T07:51:47;100289.41;;;12.59;96.17
72262;BME280;60173;52.112;8.648;2022-10-22T07:54:13;100293.28;;;12.66;96.49
72262;BME280;60173;52.112;8.648;2022-10-22T07:56:39;100295.72;;;12.77;96.54
72262;BME280;60173;52.112;8.648;2022-10-22T07:59:06;100290.63;;;13.01;96.23
72262;BME280;60173;52.112;8.648;2022-10-22T08:01:32;100287.47;;;13.17;95.36
72262;BME280;60173;52.112;8.648;2022-10-22T08:03:58;100293.41;;;13.27;95.00
72262;BME280;60173;52.112;8.648;2022-10-22T08:06:25;100284.13;;;13.37;94.74
72262;BME280;60173;52.112;8.648;2022-10-22T08:08:51;100285.88;;;13.50;94.04
72262;BME280;60173;52.112;8.648;2022-10-22T08:11:17;100293.09;;;13.64;93.29
72262;BME280;60173;52.112;8.648;2022-10-22T08:13:44;100291.81;;;13.78;92.24
72262;BME280;60173;52.112;8.648;2022-10-22T08:16:11;100299.97;;;13.87;92.08
72262;BME280;60173;52.112;8.648;2022-10-22T08:18:37;100297.75;;;13.89;92.41
72262;BME280;60173;52.112;8.648;2022-10-22T08:21:04;100302.84;;;13.99;92.17
72262;BME280;60173;52.112;8.648;2022-10-22T08:23:30;100297.69;;;14.07;91.84
72262;BME280;60173;52.112;8.648;2022-10-22T08:25:57;100301.19;;;14.16;91.45
72262;BME280;60173;52.112;8.648;2022-10-22T08:28:23;100307.91;;;14.36;91.67
72262;BME280;60173;52.112;8.648;2022-10-22T08:30:50;100307.06;;;14.53;90.57
72262;BME280;60173;52.112;8.648;2022-10-22T08:33:16;100311.97;;;14.68;90.04
72262;BME280;60173;52.112;8.648;2022-10-22T08:35:47;100306.59;;;14.80;89.55
72262;BME280;60173;52.112;8.648;2022-10-22T08:38:13;100313.94;;;14.88;89.36
72262;BME280;60173;52.112;8.648;2022-10-22T08:40:41;100308.84;;;15.08;89.17
72262;BME280;60173;52.112;8.648;2022-10-22T08:46:59;100311.28;;;15.51;86.79
72262;BME280;60173;52.112;8.648;2022-10-22T08:49:32;100317.91;;;15.71;86.95
72262;BME280;60173;52.112;8.648;2022-10-22T08:52:14;100318.91;;;16.00;86.53
72262;BME280;60173;52.112;8.648;2022-10-22T08:54:55;100319.63;;;16.09;85.56
72262;BME280;60173;52.112;8.648;2022-10-22T09:00:46;100325.25;;;16.37;84.80
72262;BME280;60173;52.112;8.648;2022-10-22T09:08:59;100334.31;;;16.62;86.52
72262;BME280;60173;52.112;8.648;2022-10-22T09:11:30;100329.66;;;16.75;84.34
72262;BME280;60173;52.112;8.648;2022-10-22T09:13:58;100323.13;;;16.67;82.58
72262;BME280;60173;52.112;8.648;2022-10-22T09:19:37;100334.00;;;16.64;83.32
72262;BME280;60173;52.112;8.648;2022-10-22T09:24:47;100329.09;;;16.82;82.66
72262;BME280;60173;52.112;8.648;2022-10-22T09:27:26;100329.78;;;17.03;82.02
72262;BME280;60173;52.112;8.648;2022-10-22T09:29:53;100326.13;;;17.11;80.66
72262;BME280;60173;52.112;8.648;2022-10-22T09:32:19;100321.53;;;17.03;79.86
72262;BME280;60173;52.112;8.648;2022-10-22T09:34:47;100324.28;;;17.15;79.79
72262;BME280;60173;52.112;8.648;2022-10-22T09:37:19;100341.41;;;17.25;79.74
72262;BME280;60173;52.112;8.648;2022-10-22T09:39:51;100328.56;;;17.41;77.49
72262;BME280;60173;52.112;8.648;2022-10-22T09:42:19;100341.16;;;17.42;78.13
72262;BME280;60173;52.112;8.648;2022-10-22T09:44:52;100334.75;;;17.50;77.85
72262;BME280;60173;52.112;8.648;2022-10-22T09:50:19;100347.34;;;17.39;78.15
72262;BME280;60173;52.112;8.648;2022-10-22T09:53:18;100344.72;;;17.30;76.82
72262;BME280;60173;52.112;8.648;2022-10-22T09:55:52;100361.53;;;17.29;77.75
72262;BME280;60173;52.112;8.648;2022-10-22T09:58:19;100358.78;;;17.29;77.48
72262;BME280;60173;52.112;8.648;2022-10-22T10:00:50;100364.06;;;17.22;78.05
72262;BME280;60173;52.112;8.648;2022-10-22T10:03:19;100355.75;;;17.58;77.75
72262;BME280;60173;52.112;8.648;2022-10-22T10:05:52;100357.53;;;17.79;75.91
72262;BME280;60173;52.112;8.648;2022-10-22T10:08:19;100355.03;;;17.74;75.96
72262;BME280;60173;52.112;8.648;2022-10-22T10:10:49;100361.91;;;17.80;75.93
72262;BME280;60173;52.112;8.648;2022-10-22T10:16:59;100365.34;;;17.65;75.82
72262;BME280;60173;52.112;8.648;2022-10-22T10:24:49;100368.97;;;17.81;75.38
72262;BME280;60173;52.112;8.648;2022-10-22T10:27:25;100368.28;;;17.84;75.06
72262;BME280;60173;52.112;8.648;2022-10-22T10:44:40;100371.72;;;17.81;74.30
72262;BME280;60173;52.112;8.648;2022-10-22T10:49:22;100384.78;;;18.28;72.13
72262;BME280;60173;52.112;8.648;2022-10-22T10:57:42;100371.38;;;18.55;70.88
72262;BME280;60173;52.112;8.648;2022-10-22T11:00:17;100384.19;;;18.79;70.09
72262;BME280;60173;52.112;8.648;2022-10-22T11:05:41;100374.50;;;18.85;67.82
72262;BME280;60173;52.112;8.648;2022-10-22T11:08:21;100379.88;;;18.49;68.12
72262;BME280;60173;52.112;8.648;2022-10-22T11:11:01;100384.16;;;18.19;68.43
72262;BME280;60173;52.112;8.648;2022-10-22T11:13:34;100386.66;;;18.24;70.06
72262;BME280;60173;52.112;8.648;2022-10-22T11:16:16;100382.38;;;18.11;68.56
72262;BME280;60173;52.112;8.648;2022-10-22T11:21:23;100391.16;;;18.16;69.34
72262;BME280;60173;52.112;8.648;2022-10-22T11:27:10;100393.47;;;17.86;69.38
72262;BME280;60173;52.112;8.648;2022-10-22T11:29:48;100388.13;;;18.05;69.52
72262;BME280;60173;52.112;8.648;2022-10-22T11:32:19;100395.84;;;18.16;68.86
72262;BME280;60173;52.112;8.648;2022-10-22T11:34:51;100399.56;;;18.07;67.97
72262;BME280;60173;52.112;8.648;2022-10-22T11:37:19;100392.06;;;17.92;67.92
72262;BME280;60173;52.112;8.648;2022-10-22T11:40:00;100395.84;;;17.88;67.57
72262;BME280;60173;52.112;8.648;2022-10-22T11:42:35;100399.97;;;17.94;68.49
72262;BME280;60173;52.112;8.648;2022-10-22T11:55:43;100409.50;;;17.84;70.30
72262;BME280;60173;52.112;8.648;2022-10-22T11:58:26;100408.09;;;18.18;69.76
72262;BME280;60173;52.112;8.648;2022-10-22T12:00:55;100407.63;;;18.44;67.83
72262;BME280;60173;52.112;8.648;2022-10-22T12:08:33;100406.97;;;18.79;67.43
72262;BME280;60173;52.112;8.648;2022-10-22T12:16:36;100395.91;;;18.76;66.49
72262;BME280;60173;52.112;8.648;2022-10-22T12:22:01;100410.59;;;18.67;66.32
72262;BME280;60173;52.112;8.648;2022-10-22T12:24:36;100406.59;;;18.65;64.38
72262;BME280;60173;52.112;8.648;2022-10-22T12:27:03;100403.63;;;18.42;65.79
72262;BME280;60173;52.112;8.648;2022-10-22T12:29:31;100407.56;;;18.13;65.69
72262;BME280;60173;52.112;8.648;2022-10-22T12:32:02;100410.75;;;17.87;67.33
72262;BME280;60173;52.112;8.648;2022-10-22T12:34:29;100405.84;;;17.68;68.59
72262;BME280;60173;52.112;8.648;2022-10-22T12:36:55;100414.56;;;17.57;68.99
72262;BME280;60173;52.112;8.648;2022-10-22T12:39:25;100408.97;;;17.54;69.79
72262;BME280;60173;52.112;8.648;2022-10-22T12:41:52;100412.53;;;17.42;70.30
72262;BME280;60173;52.112;8.648;2022-10-22T12:44:19;100413.13;;;17.11;71.10
72262;BME280;60173;52.112;8.648;2022-10-22T12:46:47;100420.88;;;17.21;70.92
72262;BME280;60173;52.112;8.648;2022-10-22T12:49:21;100427.31;;;17.13;71.68
72262;BME280;60173;52.112;8.648;2022-10-22T12:51:48;100423.75;;;17.00;71.28
72262;BME280;60173;52.112;8.648;2022-10-22T12:54:29;100423.06;;;17.03;71.08
72262;BME280;60173;52.112;8.648;2022-10-22T12:56:56;100414.50;;;17.05;70.52
72262;BME280;60173;52.112;8.648;2022-10-22T12:59:25;100414.84;;;17.15;70.52
72262;BME280;60173;52.112;8.648;2022-10-22T13:01:53;100419.16;;;17.29;69.88
72262;BME280;60173;52.112;8.648;2022-10-22T13:07:05;100418.63;;;17.76;68.40
72262;BME280;60173;52.112;8.648;2022-10-22T13:09:38;100413.25;;;17.92;66.87
72262;BME280;60173;52.112;8.648;2022-10-22T13:12:06;100414.78;;;18.05;67.10
72262;BME280;60173;52.112;8.648;2022-10-22T13:14:34;100409.75;;;18.35;65.38
72262;BME280;60173;52.112;8.648;2022-10-22T13:17:58;100418.00;;;18.35;65.58
72262;BME280;60173;52.112;8.648;2022-10-22T13:22:25;100422.94;;;18.01;66.60
72262;BME280;60173;52.112;8.648;2022-10-22T13:24:52;100417.44;;;18.01;66.67
72262;BME280;60173;52.112;8.648;2022-10-22T13:27:18;100430.06;;;18.02;66.35
72262;BME280;60173;52.112;8.648;2022-10-22T13:29:45;100416.88;;;17.96;66.39
72262;BME280;60173;52.112;8.648;2022-10-22T13:32:27;100426.44;;;17.61;66.27
72262;BME280;60173;52.112;8.648;2022-10-22T13:34:56;100423.72;;;17.49;67.02
72262;BME280;60173;52.112;8.648;2022-10-22T13:37:23;100421.00;;;17.12;67.73
72262;BME280;60173;52.112;8.648;2022-10-22T13:39:49;100420.09;;;16.84;68.82
72262;BME280;60173;52.112;8.648;2022-10-22T13:42:16;100426.25;;;16.81;69.35
72262;BME280;60173;52.112;8.648;2022-10-22T13:44:42;100432.25;;;16.74;70.05
72262;BME280;60173;52.112;8.648;2022-10-22T13:47:28;100422.94;;;16.54;70.61
72262;BME280;60173;52.112;8.648;2022-10-22T13:49:57;100423.19;;;16.49;71.29
72262;BME280;60173;52.112;8.648;2022-10-22T13:52:37;100430.47;;;16.45;71.31
72262;BME280;60173;52.112;8.648;2022-10-22T13:55:25;100432.88;;;16.46;71.53
72262;BME280;60173;52.112;8.648;2022-10-22T13:58:13;100431.81;;;16.39;71.56
72262;BME280;60173;52.112;8.648;2022-10-22T14:00:41;100433.25;;;16.57;71.23
72262;BME280;60173;52.112;8.648;2022-10-22T14:03:11;100440.53;;;16.86;70.28
72262;BME280;60173;52.112;8.648;2022-10-22T14:05:38;100452.06;;;16.92;70.08
72262;BME280;60173;52.112;8.648;2022-10-22T14:08:10;100449.59;;;17.11;70.00
72262;BME280;60173;52.112;8.648;2022-10-22T14:10:37;100446.47;;;17.01;70.50
72262;BME280;60173;52.112;8.648;2022-10-22T14:13:09;100455.66;;;16.71;70.62
72262;BME280;60173;52.112;8.648;2022-10-22T14:15:36;100454.63;;;16.64;71.75
72262;BME280;60173;52.112;8.648;2022-10-22T14:18:04;100465.19;;;16.41;72.47
72262;BME280;60173;52.112;8.648;2022-10-22T14:20:34;100472.13;;;16.38;73.21
72262;BME280;60173;52.112;8.648;2022-10-22T14:23:28;100473.94;;;16.34;74.43
72262;BME280;60173;52.112;8.648;2022-10-22T14:25:54;100476.34;;;16.36;75.75
72262;BME280;60173;52.112;8.648;2022-10-22T14:28:20;100477.97;;;16.16;76.19
72262;BME280;60173;52.112;8.648;2022-10-22T14:30:47;100476.69;;;16.13;77.03
72262;BME280;60173;52.112;8.648;2022-10-22T14:33:17;100473.75;;;16.18;77.56
72262;BME280;60173;52.112;8.648;2022-10-22T14:35:44;100474.81;;;16.05;78.04
72262;BME280;60173;52.112;8.648;2022-10-22T14:38:10;100472.16;;;15.96;78.57
72262;BME280;60173;52.112;8.648;2022-10-22T14:40:38;100474.88;;;15.96;78.11
72262;BME280;60173;52.112;8.648;2022-10-22T14:43:05;100471.84;;;15.98;77.80
72262;BME280;60173;52.112;8.648;2022-10-22T14:45:31;100476.50;;;15.97;78.27
72262;BME280;60173;52.112;8.648;2022-10-22T14:47:57;100479.81;;;15.82;78.61
72262;BME280;60173;52.112;8.648;2022-10-22T14:50:24;100484.78;;;15.89;78.64
72262;BME280;60173;52.112;8.648;2022-10-22T14:52:50;100482.25;;;15.84;78.50
72262;BME280;60173;52.112;8.648;2022-10-22T14:55:18;100483.13;;;15.67;79.82